Time;durP1;ratioP1;P1;durP2;ratioP2;P2;SDS_P1;SDS_P2;PMS_P1;PMS_P2;Temp;Humidity;BMP_temperature;BMP_pressure;BME280_temperature;BME280_humidity;BME280_pressure;Samples;Min_cycle;Max_cycle;Signal;HPM_P1;HPM_P2
2021/08/29 00:02:14;;;;;;;17.20;14.98;;;;;;;;;;5074806;28;20064;-84
2021/08/29 00:04:41;;;;;;;17.20;14.77;;;;;;;;;;5074704;28;20081;-84
2021/08/29 00:07:07;;;;;;;16.33;14.77;;;;;;;;;;5074169;28;20024;-85
2021/08/29 00:09:33;;;;;;;17.02;14.32;;;;;;;;;;5074177;28;20024;-85
2021/08/29 00:11:59;;;;;;;14.18;12.77;;;;;;;;;;5074403;28;20033;-85
2021/08/29 00:14:25;;;;;;;15.75;14.18;;;;;;;;;;5074933;28;20028;-85
2021/08/29 00:16:51;;;;;;;14.52;13.18;;;;;;;;;;5074417;28;20047;-85
2021/08/29 00:19:17;;;;;;;14.30;12.90;;;;;;;;;;5074569;28;20028;-84
2021/08/29 00:21:43;;;;;;;14.18;12.57;;;;;;;;;;5074091;28;20020;-85
2021/08/29 00:24:09;;;;;;;14.32;12.13;;;;;;;;;;5074222;28;20037;-85
2021/08/29 00:26:35;;;;;;;15.00;12.18;;;;;;;;;;5074611;28;20021;-84
2021/08/29 00:29:01;;;;;;;14.82;13.35;;;;;;;;;;5074472;28;20382;-84
2021/08/29 00:31:27;;;;;;;12.85;11.55;;;;;;;;;;5074149;28;20025;-85
2021/08/29 00:33:53;;;;;;;13.32;11.80;;;;;;;;;;5074651;28;20025;-84
2021/08/29 00:36:19;;;;;;;13.23;11.82;;;;;;;;;;5074057;28;20470;-84
2021/08/29 00:38:45;;;;;;;13.07;11.80;;;;;;;;;;5074003;28;20478;-85
2021/08/29 00:41:12;;;;;;;15.07;13.48;;;;;;;;;;5074459;28;20052;-84
2021/08/29 00:43:38;;;;;;;13.90;12.45;;;;;;;;;;5073822;28;20021;-85
2021/08/29 00:46:05;;;;;;;14.10;12.00;;;;;;;;;;5074017;28;20162;-85
2021/08/29 00:48:31;;;;;;;14.10;12.18;;;;;;;;;;5074242;28;20131;-85
2021/08/29 00:50:57;;;;;;;12.75;11.60;;;;;;;;;;5074052;28;20035;-85
2021/08/29 00:53:23;;;;;;;12.52;11.30;;;;;;;;;;5073944;28;20024;-85
2021/08/29 00:55:49;;;;;;;11.65;10.55;;;;;;;;;;5074728;28;20029;-85
2021/08/29 00:58:16;;;;;;;13.90;12.13;;;;;;;;;;5073838;28;20060;-84
2021/08/29 01:00:43;;;;;;;12.05;10.85;;;;;;;;;;5074115;28;20071;-84
2021/08/29 01:03:11;;;;;;;12.48;11.27;;;;;;;;;;5074053;28;20103;-84
2021/08/29 01:05:38;;;;;;;12.45;11.25;;;;;;;;;;5073491;28;20504;-84
2021/08/29 01:08:06;;;;;;;12.43;11.23;;;;;;;;;;5073693;28;20551;-84
2021/08/29 01:10:52;;;;;;;12.60;11.40;;;;;;;;;;5073831;28;20017;-84
2021/08/29 01:13:19;;;;;;;13.13;11.75;;;;;;;;;;5059201;28;20374;-84
2021/08/29 01:15:46;;;;;;;11.63;10.45;;;;;;;;;;5073468;28;20542;-84
2021/08/29 01:18:12;;;;;;;11.98;10.77;;;;;;;;;;5073627;28;20107;-86
2021/08/29 01:20:58;;;;;;;11.95;10.82;;;;;;;;;;5073862;28;20032;-86
2021/08/29 01:23:24;;;;;;;12.45;11.25;;;;;;;;;;5058678;28;20370;-86
2021/08/29 01:25:53;;;;;;;12.57;11.32;;;;;;;;;;5074229;28;20032;-85
2021/08/29 01:28:19;;;;;;;12.55;11.35;;;;;;;;;;5076216;28;20020;-85
2021/08/29 01:30:45;;;;;;;11.20;10.05;;;;;;;;;;5077381;28;20086;-85
2021/08/29 01:33:12;;;;;;;11.35;10.30;;;;;;;;;;5077505;28;20139;-85
2021/08/29 01:35:38;;;;;;;12.02;10.27;;;;;;;;;;5077292;28;20370;-85
2021/08/29 01:38:05;;;;;;;12.77;10.80;;;;;;;;;;5077580;28;20103;-86
2021/08/29 01:40:31;;;;;;;11.88;10.68;;;;;;;;;;5077138;28;20071;-86
2021/08/29 01:42:57;;;;;;;11.20;10.20;;;;;;;;;;5077257;28;20108;-86
2021/08/29 01:45:24;;;;;;;12.77;11.13;;;;;;;;;;5076829;28;20033;-86
2021/08/29 01:47:52;;;;;;;11.45;10.35;;;;;;;;;;5076869;28;20062;-86
2021/08/29 01:50:18;;;;;;;13.18;10.32;;;;;;;;;;5077335;28;20107;-86
2021/08/29 01:52:44;;;;;;;13.95;10.15;;;;;;;;;;5076972;28;20028;-86
2021/08/29 01:55:10;;;;;;;12.23;11.02;;;;;;;;;;5077046;28;20466;-86
2021/08/29 01:57:36;;;;;;;12.70;11.50;;;;;;;;;;5076444;28;20056;-86
2021/08/29 02:00:03;;;;;;;10.57;9.48;;;;;;;;;;5076883;28;20074;-86
2021/08/29 02:02:29;;;;;;;11.73;10.40;;;;;;;;;;5076578;28;20162;-86
2021/08/29 02:04:55;;;;;;;11.18;9.20;;;;;;;;;;5076696;28;20045;-86
2021/08/29 02:07:30;;;;;;;11.27;10.18;;;;;;;;;;5076816;28;20052;-86
2021/08/29 02:10:00;;;;;;;11.85;10.50;;;;;;;;;;5076675;28;20024;-86
2021/08/29 02:12:27;;;;;;;11.73;10.52;;;;;;;;;;5077036;28;20556;-86
2021/08/29 02:14:56;;;;;;;13.05;11.38;;;;;;;;;;5076604;28;20481;-85
2021/08/29 02:17:22;;;;;;;11.85;10.68;;;;;;;;;;5076784;28;20118;-86
2021/08/29 02:19:48;;;;;;;12.18;10.57;;;;;;;;;;5077356;28;20056;-86
2021/08/29 02:22:15;;;;;;;10.75;9.85;;;;;;;;;;5076964;28;20020;-86
2021/08/29 02:24:41;;;;;;;11.82;9.85;;;;;;;;;;5076446;28;20048;-85
2021/08/29 02:27:07;;;;;;;10.73;9.63;;;;;;;;;;5076311;28;20420;-85
2021/08/29 02:29:33;;;;;;;11.95;10.77;;;;;;;;;;5075933;28;20047;-85
2021/08/29 02:31:59;;;;;;;11.38;10.27;;;;;;;;;;5076408;28;20374;-85
2021/08/29 02:34:25;;;;;;;10.50;9.40;;;;;;;;;;5076719;28;20489;-85
2021/08/29 02:36:51;;;;;;;11.02;9.93;;;;;;;;;;5076454;28;20411;-86
2021/08/29 02:39:17;;;;;;;10.98;9.93;;;;;;;;;;5076200;28;20028;-86
2021/08/29 02:41:44;;;;;;;10.43;9.48;;;;;;;;;;5076138;28;20020;-86
2021/08/29 02:44:10;;;;;;;10.65;9.55;;;;;;;;;;5075700;28;20540;-85
2021/08/29 02:46:36;;;;;;;14.13;10.20;;;;;;;;;;5076565;28;20028;-86
2021/08/29 02:49:02;;;;;;;10.55;9.48;;;;;;;;;;5076286;28;20028;-86
2021/08/29 02:51:28;;;;;;;10.50;9.60;;;;;;;;;;5075712;28;20021;-86
2021/08/29 02:53:54;;;;;;;11.80;10.60;;;;;;;;;;5076216;28;20067;-86
2021/08/29 02:56:20;;;;;;;10.52;9.48;;;;;;;;;;5075602;28;20402;-85
2021/08/29 02:58:46;;;;;;;10.73;9.63;;;;;;;;;;5075577;28;20086;-85
2021/08/29 03:01:13;;;;;;;10.63;9.63;;;;;;;;;;5075949;28;20031;-86
2021/08/29 03:03:39;;;;;;;11.18;10.18;;;;;;;;;;5075551;28;20025;-85
2021/08/29 03:06:05;;;;;;;9.65;8.75;;;;;;;;;;5076277;28;20102;-86
2021/08/29 03:08:32;;;;;;;12.25;10.00;;;;;;;;;;5075556;28;20104;-85
2021/08/29 03:10:58;;;;;;;10.27;9.27;;;;;;;;;;5075591;28;20021;-85
2021/08/29 03:13:24;;;;;;;10.60;9.60;;;;;;;;;;5075434;28;20517;-86
2021/08/29 03:15:50;;;;;;;11.07;9.90;;;;;;;;;;5075927;28;20077;-84
2021/08/29 03:18:16;;;;;;;11.00;9.73;;;;;;;;;;5076037;28;20028;-84
2021/08/29 03:20:42;;;;;;;10.50;9.40;;;;;;;;;;5075647;28;20027;-84
2021/08/29 03:23:08;;;;;;;10.60;9.55;;;;;;;;;;5075413;28;20032;-84
2021/08/29 03:25:34;;;;;;;9.68;8.75;;;;;;;;;;5075035;28;20040;-85
2021/08/29 03:28:01;;;;;;;12.43;8.57;;;;;;;;;;5075371;28;20029;-85
2021/08/29 03:30:27;;;;;;;11.10;8.88;;;;;;;;;;5075237;28;20082;-85
2021/08/29 03:32:53;;;;;;;11.55;10.45;;;;;;;;;;5075274;28;20032;-84
2021/08/29 03:35:19;;;;;;;11.13;10.05;;;;;;;;;;5075118;28;20107;-84
2021/08/29 03:37:45;;;;;;;10.82;9.70;;;;;;;;;;5074775;28;20458;-85
2021/08/29 03:40:11;;;;;;;9.35;8.45;;;;;;;;;;5074913;28;20025;-85
2021/08/29 03:42:37;;;;;;;12.57;10.30;;;;;;;;;;5074725;28;20039;-86
2021/08/29 03:45:04;;;;;;;10.57;9.45;;;;;;;;;;5075187;28;20037;-85
2021/08/29 03:47:30;;;;;;;11.50;9.05;;;;;;;;;;5074753;28;20067;-85
2021/08/29 03:49:57;;;;;;;10.05;9.10;;;;;;;;;;5074692;28;20028;-86
2021/08/29 03:52:23;;;;;;;10.85;9.30;;;;;;;;;;5075026;28;20356;-87
2021/08/29 03:54:49;;;;;;;10.50;9.32;;;;;;;;;;5074494;28;20428;-84
2021/08/29 03:57:15;;;;;;;10.00;9.00;;;;;;;;;;5074714;28;20109;-86
2021/08/29 03:59:41;;;;;;;9.27;8.48;;;;;;;;;;5074552;28;20053;-85
2021/08/29 04:02:08;;;;;;;9.02;8.15;;;;;;;;;;5075263;28;20029;-85
2021/08/29 04:04:34;;;;;;;11.20;9.95;;;;;;;;;;5075070;28;20123;-85
2021/08/29 04:07:01;;;;;;;9.73;8.82;;;;;;;;;;5074495;28;20024;-84
2021/08/29 04:09:27;;;;;;;9.38;8.52;;;;;;;;;;5074565;28;20028;-84
2021/08/29 04:11:54;;;;;;;10.23;8.65;;;;;;;;;;5074183;28;20056;-86
2021/08/29 04:14:20;;;;;;;9.38;8.35;;;;;;;;;;5074756;28;20028;-82
2021/08/29 04:16:46;;;;;;;9.50;8.07;;;;;;;;;;5074806;28;20086;-82
2021/08/29 04:19:12;;;;;;;9.93;8.93;;;;;;;;;;5074597;28;20028;-82
2021/08/29 04:21:38;;;;;;;8.82;7.85;;;;;;;;;;5074018;28;20021;-85
2021/08/29 04:24:04;;;;;;;9.73;8.82;;;;;;;;;;5074186;28;20075;-81
2021/08/29 04:26:30;;;;;;;9.75;8.75;;;;;;;;;;5074412;28;20020;-85
2021/08/29 04:28:57;;;;;;;10.02;8.20;;;;;;;;;;5074590;28;20473;-84
2021/08/29 04:31:23;;;;;;;11.07;9.52;;;;;;;;;;5074278;28;20025;-85
2021/08/29 04:33:50;;;;;;;9.35;8.45;;;;;;;;;;5074542;28;20139;-84
2021/08/29 04:36:16;;;;;;;16.00;8.13;;;;;;;;;;5070457;28;20067;-88
2021/08/29 04:38:42;;;;;;;16.33;8.75;;;;;;;;;;5073763;28;20027;-81
2021/08/29 04:41:08;;;;;;;8.05;7.00;;;;;;;;;;5074316;28;20031;-81
2021/08/29 04:43:35;;;;;;;12.40;8.05;;;;;;;;;;5074449;28;20060;-78
2021/08/29 04:46:01;;;;;;;8.65;7.00;;;;;;;;;;5074601;28;20123;-83
2021/08/29 04:48:27;;;;;;;9.20;7.70;;;;;;;;;;5072835;28;20021;-85
2021/08/29 04:50:53;;;;;;;8.98;7.45;;;;;;;;;;5074082;28;20024;-80
2021/08/29 04:53:19;;;;;;;9.25;8.32;;;;;;;;;;5074170;28;20025;-77
2021/08/29 04:55:45;;;;;;;10.05;8.10;;;;;;;;;;5073940;28;20028;-77
2021/08/29 04:58:11;;;;;;;8.77;7.95;;;;;;;;;;5072928;28;20055;-85
2021/08/29 05:00:37;;;;;;;14.85;7.63;;;;;;;;;;5074464;28;20025;-81
2021/08/29 05:03:03;;;;;;;7.50;6.68;;;;;;;;;;5076559;28;20020;-78
2021/08/29 05:05:30;;;;;;;8.50;7.15;;;;;;;;;;5078114;28;20138;-81
2021/08/29 05:07:56;;;;;;;7.43;6.72;;;;;;;;;;5076418;28;20067;-81
2021/08/29 05:10:22;;;;;;;8.80;6.85;;;;;;;;;;5077873;28;20021;-80
2021/08/29 05:12:48;;;;;;;7.03;6.43;;;;;;;;;;5078187;28;20032;-88
2021/08/29 05:15:14;;;;;;;10.57;7.00;;;;;;;;;;5077936;28;20070;-88
2021/08/29 05:17:40;;;;;;;8.07;6.63;;;;;;;;;;5076445;28;20097;-84
2021/08/29 05:20:06;;;;;;;6.80;5.65;;;;;;;;;;5078218;28;20020;-83
2021/08/29 05:22:32;;;;;;;8.65;5.65;;;;;;;;;;5077974;28;20025;-81
2021/08/29 05:24:58;;;;;;;8.43;6.78;;;;;;;;;;5075903;28;20040;-85
2021/08/29 05:27:24;;;;;;;8.70;6.70;;;;;;;;;;5077039;28;20652;-81
2021/08/29 05:29:50;;;;;;;7.18;6.47;;;;;;;;;;5077626;28;20071;-84
2021/08/29 05:32:17;;;;;;;6.60;5.90;;;;;;;;;;5076590;28;20098;-82
2021/08/29 05:34:43;;;;;;;16.00;6.40;;;;;;;;;;5077803;28;20054;-79
2021/08/29 05:37:09;;;;;;;6.88;6.28;;;;;;;;;;5077481;28;20060;-78
2021/08/29 05:39:35;;;;;;;10.98;5.93;;;;;;;;;;5075849;28;20466;-82
2021/08/29 05:42:01;;;;;;;6.05;5.10;;;;;;;;;;5076611;28;20462;-87
2021/08/29 05:44:27;;;;;;;6.28;5.68;;;;;;;;;;5075889;28;20036;-89
2021/08/29 05:46:53;;;;;;;12.07;6.32;;;;;;;;;;5075788;28;20033;-82
2021/08/29 05:49:19;;;;;;;24.48;9.68;;;;;;;;;;5076831;28;20020;-88
2021/08/29 05:51:45;;;;;;;40.67;12.20;;;;;;;;;;5076905;28;20515;-86
2021/08/29 05:54:11;;;;;;;29.00;11.20;;;;;;;;;;5076534;28;20098;-91
2021/08/29 05:56:37;;;;;;;25.23;9.73;;;;;;;;;;5075917;28;20090;-86
2021/08/29 05:59:04;;;;;;;34.05;11.30;;;;;;;;;;5076669;28;20025;-87
2021/08/29 06:01:31;;;;;;;27.75;11.48;;;;;;;;;;5076621;28;20118;-88
2021/08/29 06:03:57;;;;;;;18.27;9.65;;;;;;;;;;5074828;28;20059;-86
2021/08/29 06:06:23;;;;;;;27.42;9.55;;;;;;;;;;5078928;28;20104;-89
2021/08/29 06:08:49;;;;;;;30.17;11.88;;;;;;;;;;5079046;28;20025;-89
2021/08/29 06:11:15;;;;;;;17.85;8.15;;;;;;;;;;5079186;28;20032;-85
2021/08/29 06:13:41;;;;;;;13.77;8.20;;;;;;;;;;5078192;28;20458;-83
2021/08/29 06:16:07;;;;;;;20.90;7.15;;;;;;;;;;5078201;28;20108;-83
2021/08/29 06:18:33;;;;;;;20.20;9.63;;;;;;;;;;5079627;28;20035;-83
2021/08/29 06:20:59;;;;;;;22.15;8.38;;;;;;;;;;5079587;28;20107;-81
2021/08/29 06:23:25;;;;;;;15.55;7.22;;;;;;;;;;5078820;28;20050;-83
2021/08/29 06:25:51;;;;;;;12.73;7.40;;;;;;;;;;5078536;28;20036;-82
2021/08/29 06:28:17;;;;;;;13.65;6.97;;;;;;;;;;5079400;28;20024;-83
2021/08/29 06:30:44;;;;;;;13.95;6.88;;;;;;;;;;5079603;28;20032;-83
2021/08/29 06:33:10;;;;;;;12.82;6.22;;;;;;;;;;5078684;28;20115;-82
2021/08/29 06:35:36;;;;;;;17.73;8.32;;;;;;;;;;5078592;28;20028;-83
2021/08/29 06:38:02;;;;;;;10.05;5.60;;;;;;;;;;5078993;28;20021;-84
2021/08/29 06:40:28;;;;;;;7.82;4.97;;;;;;;;;;5078691;28;20477;-84
2021/08/29 06:42:54;;;;;;;8.77;5.30;;;;;;;;;;5078909;28;20470;-83
2021/08/29 06:45:20;;;;;;;8.02;5.43;;;;;;;;;;5078896;28;20043;-86
2021/08/29 06:47:46;;;;;;;8.23;4.88;;;;;;;;;;5077466;28;20031;-83
2021/08/29 06:50:12;;;;;;;11.80;5.22;;;;;;;;;;5078092;28;20454;-82
2021/08/29 06:52:38;;;;;;;7.07;4.93;;;;;;;;;;5077730;28;20033;-81
2021/08/29 06:55:05;;;;;;;8.98;5.85;;;;;;;;;;5078348;28;20478;-84
2021/08/29 06:57:31;;;;;;;12.10;5.28;;;;;;;;;;5078220;28;20052;-81
2021/08/29 06:59:57;;;;;;;8.15;4.40;;;;;;;;;;5077553;28;20025;-82
2021/08/29 07:02:23;;;;;;;9.32;5.15;;;;;;;;;;5078286;28;20382;-82
2021/08/29 07:04:49;;;;;;;9.23;5.28;;;;;;;;;;5077862;28;20062;-81
2021/08/29 07:07:15;;;;;;;8.07;5.20;;;;;;;;;;5077600;28;20024;-80
2021/08/29 07:09:41;;;;;;;7.22;4.95;;;;;;;;;;5077277;28;20021;-82
2021/08/29 07:12:08;;;;;;;5.50;4.70;;;;;;;;;;5078230;28;20025;-81
2021/08/29 07:14:34;;;;;;;8.90;4.65;;;;;;;;;;5077988;28;20047;-82
2021/08/29 07:17:00;;;;;;;10.02;4.53;;;;;;;;;;5077140;28;20086;-82
2021/08/29 07:19:26;;;;;;;5.47;4.40;;;;;;;;;;5077196;28;20052;-81
2021/08/29 07:21:52;;;;;;;4.68;4.07;;;;;;;;;;5077915;28;20028;-80
2021/08/29 07:24:18;;;;;;;9.02;4.70;;;;;;;;;;5077525;28;20038;-80
2021/08/29 07:26:44;;;;;;;6.07;4.55;;;;;;;;;;5076969;28;20025;-80
2021/08/29 07:29:10;;;;;;;4.70;4.13;;;;;;;;;;5077950;28;20108;-80
2021/08/29 07:31:36;;;;;;;4.90;4.38;;;;;;;;;;5077491;28;20025;-80
2021/08/29 07:34:02;;;;;;;5.13;3.58;;;;;;;;;;5077783;28;20028;-80
2021/08/29 07:36:28;;;;;;;8.30;3.42;;;;;;;;;;5077221;28;20027;-80
2021/08/29 07:38:54;;;;;;;3.60;3.30;;;;;;;;;;5077218;28;20028;-80
2021/08/29 07:41:20;;;;;;;3.65;3.35;;;;;;;;;;5077711;28;20486;-82
2021/08/29 07:43:46;;;;;;;4.43;3.55;;;;;;;;;;5078517;28;20378;-81
2021/08/29 07:46:12;;;;;;;6.35;3.35;;;;;;;;;;5077921;28;20099;-80
2021/08/29 07:48:38;;;;;;;3.95;3.58;;;;;;;;;;5077621;28;20048;-81
2021/08/29 07:51:05;;;;;;;4.22;3.75;;;;;;;;;;5077309;28;20063;-80
2021/08/29 07:53:31;;;;;;;6.43;3.22;;;;;;;;;;5077533;28;20063;-80
2021/08/29 07:55:57;;;;;;;6.53;3.20;;;;;;;;;;5077731;28;20037;-80
2021/08/29 08:01:26;;;;;;;8.52;3.70;;;;;;;;;;5073652;28;20047;-80
2021/08/29 08:03:52;;;;;;;9.35;3.70;;;;;;;;;;5075995;28;20035;-81
2021/08/29 08:06:19;;;;;;;4.50;4.05;;;;;;;;;;5076829;28;20039;-81
2021/08/29 08:08:45;;;;;;;5.28;3.38;;;;;;;;;;5077608;28;20028;-82
2021/08/29 08:11:11;;;;;;;5.80;3.58;;;;;;;;;;5076985;28;20028;-82
2021/08/29 08:13:37;;;;;;;8.80;3.40;;;;;;;;;;5076690;28;20090;-82
2021/08/29 08:16:03;;;;;;;3.95;3.35;;;;;;;;;;5076769;28;20100;-81
2021/08/29 08:18:29;;;;;;;4.72;3.22;;;;;;;;;;5076837;28;20020;-82
2021/08/29 08:20:55;;;;;;;4.05;3.65;;;;;;;;;;5076600;28;20385;-82
2021/08/29 08:23:21;;;;;;;3.63;3.33;;;;;;;;;;5076922;28;20024;-83
2021/08/29 08:25:47;;;;;;;5.03;3.63;;;;;;;;;;5076540;28;20091;-82
2021/08/29 08:28:13;;;;;;;8.77;3.45;;;;;;;;;;5077104;28;20069;-81
2021/08/29 08:30:39;;;;;;;10.48;3.70;;;;;;;;;;5076977;28;20032;-81
2021/08/29 08:33:05;;;;;;;5.72;4.10;;;;;;;;;;5076014;28;20381;-81
2021/08/29 08:35:31;;;;;;;4.35;3.80;;;;;;;;;;5076258;28;20052;-81
2021/08/29 08:37:57;;;;;;;4.93;4.53;;;;;;;;;;5077112;28;20047;-81
2021/08/29 08:40:23;;;;;;;4.07;3.67;;;;;;;;;;5077351;28;20035;-80
2021/08/29 08:42:50;;;;;;;6.20;4.03;;;;;;;;;;5076229;28;20421;-82
2021/08/29 08:45:16;;;;;;;7.07;3.65;;;;;;;;;;5076654;28;20033;-81
2021/08/29 08:47:43;;;;;;;4.20;3.83;;;;;;;;;;5076654;28;20021;-82
2021/08/29 08:50:10;;;;;;;4.32;3.65;;;;;;;;;;5076837;28;20033;-81
2021/08/29 08:52:36;;;;;;;4.10;3.70;;;;;;;;;;5076854;28;20029;-82
2021/08/29 08:55:02;;;;;;;4.93;3.78;;;;;;;;;;5076982;28;20029;-81
2021/08/29 08:57:28;;;;;;;3.47;3.17;;;;;;;;;;5076317;28;20110;-82
2021/08/29 08:59:54;;;;;;;3.80;3.50;;;;;;;;;;5076957;28;20028;-81
2021/08/29 09:02:23;;;;;;;4.53;3.53;;;;;;;;;;5076326;28;20048;-80
2021/08/29 09:04:49;;;;;;;7.13;3.10;;;;;;;;;;5076569;28;20067;-80
2021/08/29 09:07:15;;;;;;;5.00;2.47;;;;;;;;;;5076946;28;20047;-81
2021/08/29 09:09:41;;;;;;;4.03;3.10;;;;;;;;;;5076367;28;20111;-82
2021/08/29 09:12:07;;;;;;;3.45;3.15;;;;;;;;;;5076796;28;20428;-82
2021/08/29 09:14:49;;;;;;;3.30;2.90;;;;;;;;;;5076973;28;20024;-82
2021/08/29 09:17:23;;;;;;;4.18;3.42;;;;;;;;;;5076415;28;20162;-81
2021/08/29 09:19:52;;;;;;;4.90;3.40;;;;;;;;;;5076474;28;20024;-82
2021/08/29 09:22:26;;;;;;;3.70;3.13;;;;;;;;;;5076232;28;20365;-82
2021/08/29 09:24:52;;;;;;;3.95;3.55;;;;;;;;;;5076370;28;20036;-82
2021/08/29 09:27:21;;;;;;;4.07;3.63;;;;;;;;;;5075371;28;20385;-82
2021/08/29 09:29:47;;;;;;;3.90;3.55;;;;;;;;;;5075828;28;20032;-82
2021/08/29 09:32:13;;;;;;;5.93;3.55;;;;;;;;;;5077061;28;20033;-82
2021/08/29 09:34:39;;;;;;;4.18;3.78;;;;;;;;;;5076462;28;20060;-82
2021/08/29 09:37:05;;;;;;;11.32;4.30;;;;;;;;;;5076353;28;20025;-81
2021/08/29 09:39:31;;;;;;;3.90;3.50;;;;;;;;;;5076106;28;20029;-81
2021/08/29 09:42:05;;;;;;;4.30;3.90;;;;;;;;;;5076238;28;20031;-81
2021/08/29 09:44:33;;;;;;;7.78;5.18;;;;;;;;;;5076008;28;20037;-77
2021/08/29 09:47:00;;;;;;;8.45;4.38;;;;;;;;;;5075546;28;20028;-85
2021/08/29 09:49:26;;;;;;;5.35;3.90;;;;;;;;;;5078582;28;20041;-87
2021/08/29 09:51:52;;;;;;;9.48;3.95;;;;;;;;;;5079966;28;20028;-87
2021/08/29 09:54:27;;;;;;;12.07;4.32;;;;;;;;;;5080168;28;20082;-86
2021/08/29 09:56:53;;;;;;;5.70;4.10;;;;;;;;;;5080070;28;20055;-86
2021/08/29 09:59:39;;;;;;;7.07;3.95;;;;;;;;;;5080204;28;20059;-86
2021/08/29 10:02:05;;;;;;;9.80;4.65;;;;;;;;;;5065568;28;20462;-86
2021/08/29 10:04:31;;;;;;;4.90;4.40;;;;;;;;;;5079792;28;20028;-86
2021/08/29 10:07:08;;;;;;;4.70;4.15;;;;;;;;;;5079394;28;20052;-86
2021/08/29 10:09:34;;;;;;;4.88;4.47;;;;;;;;;;5078923;28;20031;-85
2021/08/29 10:12:00;;;;;;;5.20;4.70;;;;;;;;;;5079071;28;20485;-85
2021/08/29 10:14:26;;;;;;;6.68;4.75;;;;;;;;;;5079441;28;20025;-85
2021/08/29 10:16:52;;;;;;;4.57;4.18;;;;;;;;;;5079258;28;20084;-85
2021/08/29 10:19:19;;;;;;;4.93;4.43;;;;;;;;;;5079526;28;20492;-85
2021/08/29 10:21:45;;;;;;;5.55;5.10;;;;;;;;;;5079360;28;20381;-84
2021/08/29 10:24:12;;;;;;;5.00;4.38;;;;;;;;;;5079048;28;20029;-85
2021/08/29 10:26:38;;;;;;;4.97;4.50;;;;;;;;;;5079226;28;20107;-85
2021/08/29 10:29:07;;;;;;;5.30;4.80;;;;;;;;;;5079647;28;20082;-84
2021/08/29 10:31:36;;;;;;;5.85;5.25;;;;;;;;;;5078973;28;20025;-85
2021/08/29 10:34:03;;;;;;;5.40;4.65;;;;;;;;;;5079214;28;20067;-85
2021/08/29 10:36:29;;;;;;;7.28;4.90;;;;;;;;;;5079141;28;20046;-85
2021/08/29 10:38:55;;;;;;;6.80;4.30;;;;;;;;;;5079144;28;20033;-84
2021/08/29 10:41:22;;;;;;;10.15;4.90;;;;;;;;;;5079227;28;20056;-85
2021/08/29 10:43:49;;;;;;;6.38;5.32;;;;;;;;;;5078877;28;20025;-85
2021/08/29 10:46:15;;;;;;;5.28;4.75;;;;;;;;;;5078488;28;20037;-85
2021/08/29 10:48:43;;;;;;;5.43;4.95;;;;;;;;;;5078320;28;20492;-84
2021/08/29 10:51:10;;;;;;;5.97;5.05;;;;;;;;;;5078101;28;20382;-81
2021/08/29 10:53:37;;;;;;;5.68;4.80;;;;;;;;;;5078649;28;20485;-85
2021/08/29 10:56:23;;;;;;;6.07;5.45;;;;;;;;;;5078752;28;20042;-84
2021/08/29 10:59:09;;;;;;;9.15;7.40;;;;;;;;;;5063017;28;20119;-84
2021/08/29 11:01:35;;;;;;;10.60;8.15;;;;;;;;;;5062320;28;20447;-87
2021/08/29 11:04:21;;;;;;;11.23;7.53;;;;;;;;;;5078207;28;20032;-79
2021/08/29 11:06:51;;;;;;;10.00;7.05;;;;;;;;;;5063525;28;20035;-79
2021/08/29 11:09:38;;;;;;;8.43;7.38;;;;;;;;;;5077856;28;20466;-78
2021/08/29 11:12:05;;;;;;;6.35;5.78;;;;;;;;;;5063136;28;20025;-78
2021/08/29 11:14:40;;;;;;;8.20;5.63;;;;;;;;;;5077628;28;20028;-77
2021/08/29 11:17:10;;;;;;;14.50;6.85;;;;;;;;;;5077392;28;20040;-77
2021/08/29 11:19:39;;;;;;;7.63;6.22;;;;;;;;;;5076408;28;20055;-78
2021/08/29 11:22:25;;;;;;;6.47;5.88;;;;;;;;;;5077361;28;20078;-78
2021/08/29 11:24:56;;;;;;;7.07;6.25;;;;;;;;;;5076746;28;20224;-78
2021/08/29 11:27:44;;;;;;;6.47;5.85;;;;;;;;;;5076670;28;20457;-79
2021/08/29 11:30:14;;;;;;;7.50;6.05;;;;;;;;;;5063055;28;20028;-78
2021/08/29 11:32:44;;;;;;;7.18;5.93;;;;;;;;;;5076777;28;20531;-80
2021/08/29 11:35:11;;;;;;;5.95;5.38;;;;;;;;;;5076252;28;20441;-78
2021/08/29 11:37:37;;;;;;;6.28;5.68;;;;;;;;;;5076735;28;20032;-78
2021/08/29 11:40:04;;;;;;;6.03;5.07;;;;;;;;;;5076987;28;20052;-78
2021/08/29 11:42:31;;;;;;;6.30;5.80;;;;;;;;;;5076690;28;20021;-80
2021/08/29 11:44:57;;;;;;;5.90;5.35;;;;;;;;;;5076749;28;20063;-77
2021/08/29 11:47:23;;;;;;;7.93;5.10;;;;;;;;;;5076085;28;20025;-78
2021/08/29 11:49:53;;;;;;;9.75;6.20;;;;;;;;;;5076707;28;20115;-79
2021/08/29 11:52:27;;;;;;;5.85;5.25;;;;;;;;;;5078072;28;20023;-80
2021/08/29 11:55:09;;;;;;;8.00;6.38;;;;;;;;;;5076782;28;20023;-78
2021/08/29 11:57:51;;;;;;;5.63;5.13;;;;;;;;;;5076256;28;20508;-78
2021/08/29 12:00:18;;;;;;;6.22;5.63;;;;;;;;;;5076328;28;20024;-76
2021/08/29 12:02:45;;;;;;;8.55;6.10;;;;;;;;;;5076315;28;20017;-76
2021/08/29 12:05:12;;;;;;;5.72;5.22;;;;;;;;;;5076199;28;20072;-77
2021/08/29 12:07:39;;;;;;;6.13;5.53;;;;;;;;;;5076638;28;20052;-79
2021/08/29 12:10:05;;;;;;;5.40;4.95;;;;;;;;;;5077177;28;20028;-78
2021/08/29 12:12:32;;;;;;;9.40;5.75;;;;;;;;;;5077117;28;20454;-80
2021/08/29 12:14:58;;;;;;;8.38;5.28;;;;;;;;;;5077281;28;20029;-80
2021/08/29 12:17:24;;;;;;;6.20;5.63;;;;;;;;;;5076462;28;20024;-81
2021/08/29 12:19:51;;;;;;;9.30;5.60;;;;;;;;;;5076875;28;20354;-82
2021/08/29 12:22:17;;;;;;;6.32;5.72;;;;;;;;;;5075600;28;20028;-80
2021/08/29 12:24:43;;;;;;;6.45;5.85;;;;;;;;;;5077184;28;20040;-90
2021/08/29 12:27:11;;;;;;;7.18;5.35;;;;;;;;;;5077210;28;20021;-91
2021/08/29 12:29:53;;;;;;;7.22;6.53;;;;;;;;;;5075344;28;20028;-80
2021/08/29 12:32:21;;;;;;;6.38;5.78;;;;;;;;;;5076309;28;20036;-81
2021/08/29 12:34:56;;;;;;;6.70;5.20;;;;;;;;;;5077130;28;20052;-88
2021/08/29 12:37:22;;;;;;;6.20;5.70;;;;;;;;;;5076955;28;20028;-83
2021/08/29 12:40:08;;;;;;;7.65;5.13;;;;;;;;;;5076183;28;20436;-82
2021/08/29 12:42:35;;;;;;;6.45;5.38;;;;;;;;;;5060985;28;20106;-80
2021/08/29 12:45:01;;;;;;;5.70;5.13;;;;;;;;;;5076089;28;20036;-80
2021/08/29 12:47:28;;;;;;;6.80;5.45;;;;;;;;;;5077100;28;20031;-90
2021/08/29 12:49:55;;;;;;;6.25;5.22;;;;;;;;;;5077284;28;20541;-84
2021/08/29 12:52:22;;;;;;;5.93;5.43;;;;;;;;;;5077068;28;20079;-90
2021/08/29 12:54:48;;;;;;;5.57;5.03;;;;;;;;;;5076353;28;20438;-93
2021/08/29 12:57:14;;;;;;;5.32;4.93;;;;;;;;;;5077117;28;20543;-90
2021/08/29 12:59:42;;;;;;;5.50;5.00;;;;;;;;;;5076484;28;20370;-84
2021/08/29 13:02:08;;;;;;;5.22;4.72;;;;;;;;;;5075942;28;20027;-78
2021/08/29 13:04:35;;;;;;;5.15;4.68;;;;;;;;;;5073581;28;20025;-82
2021/08/29 13:07:05;;;;;;;7.15;5.18;;;;;;;;;;5073711;28;20032;-79
2021/08/29 13:09:33;;;;;;;6.63;5.95;;;;;;;;;;5074856;28;20440;-82
2021/08/29 13:11:59;;;;;;;5.78;5.28;;;;;;;;;;5075741;28;20021;-83
2021/08/29 13:14:27;;;;;;;7.78;6.18;;;;;;;;;;5075273;28;20496;-79
2021/08/29 13:16:53;;;;;;;6.28;5.78;;;;;;;;;;5075018;28;20067;-80
2021/08/29 13:19:23;;;;;;;7.45;6.28;;;;;;;;;;5074327;28;20060;-80
2021/08/29 13:21:56;;;;;;;6.53;5.93;;;;;;;;;;5074583;28;20025;-81
2021/08/29 13:24:24;;;;;;;5.78;4.65;;;;;;;;;;5077659;28;20083;-80
2021/08/29 13:26:50;;;;;;;7.32;5.03;;;;;;;;;;5077998;28;20025;-79
2021/08/29 13:29:16;;;;;;;6.93;6.03;;;;;;;;;;5077675;28;20038;-77
2021/08/29 13:31:42;;;;;;;8.52;6.45;;;;;;;;;;5075772;28;20039;-77
2021/08/29 13:34:08;;;;;;;6.50;5.90;;;;;;;;;;5076424;28;20108;-79
2021/08/29 13:36:35;;;;;;;8.98;8.13;;;;;;;;;;5077251;28;20716;-76
2021/08/29 13:39:01;;;;;;;9.20;7.97;;;;;;;;;;5076935;28;20063;-81
2021/08/29 13:41:28;;;;;;;9.10;7.30;;;;;;;;;;5077610;28;20385;-80
2021/08/29 13:43:56;;;;;;;7.55;6.40;;;;;;;;;;5077766;28;20085;-80
2021/08/29 13:46:22;;;;;;;13.13;8.13;;;;;;;;;;5077574;28;20032;-81
2021/08/29 13:48:48;;;;;;;9.07;8.18;;;;;;;;;;5077400;28;20032;-81
2021/08/29 13:51:14;;;;;;;13.63;7.80;;;;;;;;;;5077133;28;20035;-81
2021/08/29 13:53:40;;;;;;;12.10;7.03;;;;;;;;;;5076748;28;20106;-82
2021/08/29 13:56:06;;;;;;;8.68;7.78;;;;;;;;;;5076896;28;20387;-80
2021/08/29 13:58:32;;;;;;;7.53;6.53;;;;;;;;;;5077009;28;20492;-81
2021/08/29 14:00:58;;;;;;;7.65;7.05;;;;;;;;;;5077553;28;20094;-81
2021/08/29 14:03:25;;;;;;;9.00;8.10;;;;;;;;;;5076618;28;20024;-81
2021/08/29 14:05:52;;;;;;;7.55;6.95;;;;;;;;;;5077769;28;20094;-82
2021/08/29 14:08:18;;;;;;;9.98;8.95;;;;;;;;;;5092139;28;20034;-89
2021/08/29 14:10:44;;;;;;;8.60;7.78;;;;;;;;;;5100980;28;20024;-86
2021/08/29 14:13:13;;;;;;;8.70;7.95;;;;;;;;;;5104961;28;20036;-79
2021/08/29 14:15:39;;;;;;;8.35;7.25;;;;;;;;;;5097740;28;20079;-86
2021/08/29 14:18:05;;;;;;;7.82;7.18;;;;;;;;;;5099674;28;20020;-75
2021/08/29 14:20:31;;;;;;;7.32;6.70;;;;;;;;;;5098652;28;20473;-80
2021/08/29 14:22:58;;;;;;;8.43;7.70;;;;;;;;;;5098062;28;20052;-78
2021/08/29 14:25:24;;;;;;;9.63;8.48;;;;;;;;;;5097756;28;20032;-77
2021/08/29 14:27:51;;;;;;;8.82;8.02;;;;;;;;;;5097003;28;20090;-77
2021/08/29 14:30:18;;;;;;;9.57;8.75;;;;;;;;;;5096871;28;20028;-78
2021/08/29 14:32:46;;;;;;;9.02;8.23;;;;;;;;;;5098025;28;20028;-80
2021/08/29 14:35:13;;;;;;;8.73;7.75;;;;;;;;;;5097564;28;20024;-80
2021/08/29 14:37:39;;;;;;;8.48;7.78;;;;;;;;;;5097369;28;20024;-80
2021/08/29 14:40:05;;;;;;;8.50;7.50;;;;;;;;;;5096372;28;20021;-77